createdAt,value
2018-11-03T14:32:59.043Z,78.80
2018-11-03T14:35:26.549Z,79.20
2018-11-03T14:37:54.056Z,78.90
2018-11-03T14:40:21.583Z,79.80
2018-11-03T14:42:49.083Z,80.10
2018-11-03T14:45:17.162Z,79.00
2018-11-03T14:47:44.582Z,79.30
2018-11-03T14:50:12.125Z,78.80
2018-11-03T14:52:40.646Z,80.00
2018-11-03T14:55:08.565Z,79.90
2018-11-03T14:57:36.062Z,81.00
2018-11-03T15:00:03.833Z,81.60
2018-11-03T15:02:31.422Z,81.90
2018-11-03T15:04:58.979Z,81.30
2018-11-03T15:07:26.659Z,81.60
2018-11-03T15:09:54.167Z,82.20
2018-11-03T15:12:21.701Z,83.00
2018-11-03T15:14:49.375Z,83.80
2018-11-03T15:17:16.824Z,84.20
2018-11-03T15:19:44.351Z,84.70
2018-11-03T15:22:11.849Z,85.00
2018-11-03T15:24:39.347Z,85.90
2018-11-03T15:27:07.648Z,86.30
2018-11-03T15:29:35.864Z,86.80
2018-11-03T15:32:04.156Z,86.20
2018-11-03T15:34:32.425Z,86.00
2018-11-03T15:37:00.700Z,84.90
2018-11-03T15:39:28.886Z,85.20
2018-11-03T15:41:57.132Z,84.90
2018-11-03T15:44:25.335Z,84.30
2018-11-03T15:46:53.597Z,83.60
2018-11-03T15:49:21.814Z,83.50
2018-11-03T15:51:50.337Z,83.80
2018-11-03T15:54:18.540Z,84.20
2018-11-03T15:56:46.895Z,84.00
2018-11-03T15:59:15.155Z,84.80
2018-11-03T16:01:43.444Z,84.70
2018-11-03T16:04:11.707Z,85.70
2018-11-03T16:06:40.166Z,85.90
2018-11-03T16:09:09.852Z,85.40
2018-11-03T16:11:38.117Z,85.70
2018-11-03T16:14:06.436Z,85.50
2018-11-03T16:16:34.659Z,86.30
2018-11-03T16:19:02.888Z,86.50
2018-11-03T16:21:31.120Z,86.40
2018-11-03T16:23:59.354Z,86.20
2018-11-03T16:26:27.683Z,87.10
2018-11-03T16:28:55.980Z,87.90
2018-11-03T16:31:24.337Z,87.90
2018-11-03T16:33:52.571Z,88.00
2018-11-03T16:36:20.833Z,87.80
2018-11-03T16:38:49.066Z,88.40
2018-11-03T16:41:17.336Z,87.90
2018-11-03T16:43:45.571Z,87.70
2018-11-03T16:46:13.837Z,87.20
2018-11-03T16:48:42.055Z,86.90
2018-11-03T16:51:10.296Z,86.80
2018-11-03T16:53:38.527Z,86.40
2018-11-03T16:56:06.760Z,85.90
2018-11-03T16:58:35.067Z,85.80
2018-11-03T17:01:03.231Z,85.80
2018-11-03T17:03:31.449Z,85.90
2018-11-03T17:05:59.722Z,85.70
2018-11-03T17:08:34.480Z,85.90
2018-11-03T17:11:02.698Z,85.80
2018-11-03T17:13:30.973Z,85.80
2018-11-03T17:15:59.220Z,85.60
2018-11-03T17:18:27.592Z,85.50
2018-11-03T17:20:55.854Z,85.60
2018-11-03T17:23:24.165Z,85.80
2018-11-03T17:25:52.368Z,85.80
2018-11-03T17:28:20.615Z,86.50
2018-11-03T17:30:48.848Z,86.70
2018-11-03T17:33:17.107Z,86.90
2018-11-03T17:35:45.364Z,86.80
2018-11-03T17:38:13.613Z,86.60
2018-11-03T17:40:41.860Z,86.50
2018-11-03T17:43:10.169Z,86.30
2018-11-03T17:45:38.449Z,86.60
2018-11-03T17:48:06.673Z,87.00
2018-11-03T17:50:34.981Z,87.10
2018-11-03T17:53:03.280Z,86.90
2018-11-03T17:55:31.533Z,86.90
2018-11-03T17:57:59.830Z,86.60
2018-11-03T18:00:28.393Z,87.50
2018-11-03T18:02:56.945Z,86.80
2018-11-03T18:05:25.410Z,86.90
2018-11-03T18:07:53.748Z,86.90
2018-11-03T18:10:22.172Z,87.10
2018-11-03T18:12:50.504Z,86.90
2018-11-03T18:15:18.859Z,87.60
2018-11-03T18:17:47.286Z,87.50
2018-11-03T18:20:16.387Z,87.10
2018-11-03T18:22:44.663Z,87.10
2018-11-03T18:25:12.897Z,86.90
2018-11-03T18:27:41.357Z,86.70
2018-11-03T18:30:12.025Z,86.90
2018-11-03T18:32:40.749Z,86.60
2018-11-03T18:35:09.236Z,86.90
2018-11-03T18:37:37.623Z,86.70
2018-11-03T18:40:06.931Z,86.90
2018-11-03T18:42:35.616Z,86.90
2018-11-03T18:45:03.991Z,86.50
2018-11-03T18:47:32.223Z,86.20
2018-11-03T18:50:00.482Z,86.90
2018-11-03T18:52:28.870Z,87.20
2018-11-03T18:54:57.289Z,87.50
2018-11-03T18:57:25.813Z,87.20
2018-11-03T18:59:54.082Z,87.30
2018-11-03T19:02:22.695Z,87.00
2018-11-03T19:04:50.864Z,87.10
2018-11-03T19:07:19.159Z,86.90
2018-11-03T19:09:47.515Z,87.20
2018-11-03T19:12:15.763Z,87.50
2018-11-03T19:14:44.203Z,87.40
2018-11-03T19:17:13.357Z,87.40
2018-11-03T19:19:42.409Z,87.30
2018-11-03T19:22:10.643Z,87.10
2018-11-03T19:24:39.085Z,87.00
2018-11-03T19:27:07.555Z,87.20
2018-11-03T19:29:35.795Z,88.00
2018-11-03T19:32:04.090Z,88.10
2018-11-03T19:34:32.356Z,88.00
2018-11-03T19:37:00.981Z,87.70
2018-11-03T19:39:29.269Z,88.00
2018-11-03T19:41:57.747Z,87.70
2018-11-03T19:44:26.332Z,87.60
2018-11-03T19:46:54.566Z,87.70
2018-11-03T19:49:22.830Z,88.30
2018-11-03T19:51:51.117Z,88.30
2018-11-03T19:54:19.307Z,88.50
2018-11-03T19:56:47.519Z,88.00
2018-11-03T19:59:15.749Z,87.70
2018-11-03T20:01:44.178Z,87.70
2018-11-03T20:04:12.406Z,87.30
2018-11-03T20:06:40.651Z,87.20
2018-11-03T20:09:08.940Z,86.70
2018-11-03T20:11:37.189Z,86.50
2018-11-03T20:14:05.649Z,86.40
2018-11-03T20:16:33.776Z,86.30
2018-11-03T20:19:02.033Z,86.50
2018-11-03T20:21:30.263Z,87.20
2018-11-03T20:23:58.547Z,86.80
2018-11-03T20:26:26.767Z,87.20
2018-11-03T20:28:55.052Z,87.30
2018-11-03T20:31:23.284Z,87.40
2018-11-03T20:33:51.495Z,87.00
2018-11-03T20:36:19.764Z,86.80
2018-11-03T20:38:47.970Z,86.40
2018-11-03T20:41:16.155Z,86.70
2018-11-03T20:43:44.339Z,86.90
2018-11-03T20:46:12.540Z,87.20
2018-11-03T20:48:40.763Z,87.80
2018-11-03T20:51:10.626Z,88.40
2018-11-03T20:53:39.510Z,88.20
2018-11-03T20:56:07.980Z,87.90
2018-11-03T20:58:36.192Z,88.10
2018-11-03T21:01:04.828Z,88.40
2018-11-03T21:03:33.166Z,88.20
2018-11-03T21:06:01.474Z,88.60
2018-11-03T21:08:29.682Z,88.30
2018-11-03T21:10:57.976Z,87.90
2018-11-03T21:13:26.170Z,87.20
2018-11-03T21:15:54.367Z,87.50
2018-11-03T21:18:22.562Z,87.70
2018-11-03T21:20:50.778Z,87.40
2018-11-03T21:23:19.012Z,87.70
2018-11-03T21:25:47.214Z,87.90
2018-11-03T21:28:15.429Z,87.80
2018-11-03T21:30:43.634Z,87.30
2018-11-03T21:33:12.095Z,87.10
2018-11-03T21:35:40.073Z,87.00
2018-11-03T21:38:08.293Z,87.90
2018-11-03T21:40:36.487Z,87.70
2018-11-03T21:43:04.897Z,87.40
2018-11-03T21:45:33.070Z,87.40
2018-11-03T21:48:01.283Z,88.00
2018-11-03T21:50:29.455Z,88.50
2018-11-03T21:52:57.630Z,88.30
2018-11-03T21:55:25.822Z,88.60
2018-11-03T21:57:54.019Z,88.10
2018-11-03T22:00:22.228Z,87.90
2018-11-03T22:02:50.435Z,88.70
2018-11-03T22:05:18.619Z,89.00
2018-11-03T22:07:46.824Z,89.00
2018-11-03T22:10:15.016Z,88.80
2018-11-03T22:12:43.594Z,88.60
2018-11-03T22:15:11.806Z,88.40
2018-11-03T22:17:39.982Z,88.40
2018-11-03T22:20:09.559Z,88.60
2018-11-03T22:22:37.854Z,88.60
2018-11-03T22:25:06.668Z,88.20
2018-11-03T22:27:35.109Z,88.00
2018-11-03T22:30:03.298Z,87.90
2018-11-03T22:32:31.506Z,87.90
2018-11-03T22:34:59.710Z,87.70
2018-11-03T22:37:27.882Z,87.60
2018-11-03T22:39:56.087Z,87.60
2018-11-03T22:42:24.267Z,87.50
2018-11-03T22:44:52.494Z,87.30
2018-11-03T22:47:20.715Z,87.80
2018-11-03T22:49:49.044Z,88.10
2018-11-03T22:52:17.236Z,88.20
2018-11-03T22:54:45.420Z,87.90
2018-11-03T22:57:13.706Z,88.00
2018-11-03T22:59:41.991Z,87.70
2018-11-03T23:02:10.185Z,88.10
2018-11-03T23:04:38.432Z,88.20
2018-11-03T23:07:06.646Z,88.00
2018-11-03T23:09:34.843Z,88.10
2018-11-03T23:12:03.463Z,88.10
2018-11-03T23:14:31.675Z,88.00
2018-11-03T23:16:59.888Z,87.90
2018-11-03T23:19:28.115Z,87.80
2018-11-03T23:21:56.352Z,87.70
2018-11-03T23:24:24.535Z,87.80
2018-11-03T23:26:52.738Z,88.10
2018-11-03T23:29:20.991Z,88.20
2018-11-03T23:31:49.139Z,88.30
2018-11-03T23:34:17.339Z,88.20
2018-11-03T23:36:45.531Z,88.50
2018-11-03T23:39:13.754Z,88.00
2018-11-03T23:41:41.959Z,87.40
2018-11-03T23:44:10.564Z,88.20
2018-11-03T23:46:39.014Z,88.10
2018-11-03T23:49:07.375Z,88.00
2018-11-03T23:51:35.560Z,88.10
2018-11-03T23:54:03.764Z,87.90
2018-11-03T23:56:31.939Z,87.80
2018-11-03T23:59:00.157Z,87.70
